sensor_id;sensor_type;location;lat;lon;timestamp;temperature;humidity
12874;DHT22;6505;51.114;13.128;2022-10-16T00:01:43;21.30;69.50
12874;DHT22;6505;51.114;13.128;2022-10-16T00:04:12;21.20;69.40
12874;DHT22;6505;51.114;13.128;2022-10-16T00:06:41;21.20;69.50
12874;DHT22;6505;51.114;13.128;2022-10-16T00:09:10;21.20;69.40
12874;DHT22;6505;51.114;13.128;2022-10-16T00:11:39;21.20;69.40
12874;DHT22;6505;51.114;13.128;2022-10-16T00:14:10;21.30;69.60
12874;DHT22;6505;51.114;13.128;2022-10-16T00:16:41;21.20;69.50
12874;DHT22;6505;51.114;13.128;2022-10-16T00:19:10;21.20;69.40
12874;DHT22;6505;51.114;13.128;2022-10-16T00:21:41;21.20;69.30
12874;DHT22;6505;51.114;13.128;2022-10-16T00:24:11;21.20;69.40
12874;DHT22;6505;51.114;13.128;2022-10-16T00:26:40;21.20;69.30
12874;DHT22;6505;51.114;13.128;2022-10-16T00:29:09;21.20;69.30
12874;DHT22;6505;51.114;13.128;2022-10-16T00:31:37;21.20;69.40
12874;DHT22;6505;51.114;13.128;2022-10-16T00:34:06;21.20;69.40
12874;DHT22;6505;51.114;13.128;2022-10-16T00:36:34;21.20;69.40
12874;DHT22;6505;51.114;13.128;2022-10-16T00:39:02;21.20;69.50
12874;DHT22;6505;51.114;13.128;2022-10-16T00:41:33;21.20;69.70
12874;DHT22;6505;51.114;13.128;2022-10-16T00:44:03;21.20;69.60
12874;DHT22;6505;51.114;13.128;2022-10-16T00:46:47;21.20;69.70
12874;DHT22;6505;51.114;13.128;2022-10-16T00:49:17;21.20;70.20
12874;DHT22;6505;51.114;13.128;2022-10-16T00:51:50;21.20;69.70
12874;DHT22;6505;51.114;13.128;2022-10-16T00:54:23;21.20;69.70
12874;DHT22;6505;51.114;13.128;2022-10-16T00:56:57;21.20;69.70
12874;DHT22;6505;51.114;13.128;2022-10-16T00:59:29;21.20;69.80
12874;DHT22;6505;51.114;13.128;2022-10-16T01:02:01;21.20;69.70
12874;DHT22;6505;51.114;13.128;2022-10-16T01:04:33;21.20;69.80
12874;DHT22;6505;51.114;13.128;2022-10-16T01:07:10;21.20;69.90
12874;DHT22;6505;51.114;13.128;2022-10-16T01:09:51;21.20;70.10
12874;DHT22;6505;51.114;13.128;2022-10-16T01:12:33;21.20;70.20
12874;DHT22;6505;51.114;13.128;2022-10-16T01:15:18;21.20;70.20
12874;DHT22;6505;51.114;13.128;2022-10-16T01:17:58;21.30;70.30
12874;DHT22;6505;51.114;13.128;2022-10-16T01:20:33;21.20;70.40
12874;DHT22;6505;51.114;13.128;2022-10-16T01:23:15;21.30;70.50
12874;DHT22;6505;51.114;13.128;2022-10-16T01:29:04;21.30;70.60
12874;DHT22;6505;51.114;13.128;2022-10-16T01:31:39;21.30;70.30
12874;DHT22;6505;51.114;13.128;2022-10-16T01:34:14;21.30;70.40
12874;DHT22;6505;51.114;13.128;2022-10-16T01:36:48;21.40;70.50
12874;DHT22;6505;51.114;13.128;2022-10-16T01:39:21;21.30;71.20
12874;DHT22;6505;51.114;13.128;2022-10-16T01:41:55;21.20;70.40
12874;DHT22;6505;51.114;13.128;2022-10-16T01:44:31;21.30;70.60
12874;DHT22;6505;51.114;13.128;2022-10-16T01:47:03;21.30;70.60
12874;DHT22;6505;51.114;13.128;2022-10-16T01:49:36;21.30;70.60
12874;DHT22;6505;51.114;13.128;2022-10-16T01:52:08;21.30;70.60
12874;DHT22;6505;51.114;13.128;2022-10-16T01:54:41;21.30;70.60
12874;DHT22;6505;51.114;13.128;2022-10-16T01:57:13;21.30;70.70
12874;DHT22;6505;51.114;13.128;2022-10-16T01:59:48;21.30;70.70
12874;DHT22;6505;51.114;13.128;2022-10-16T02:02:22;21.30;70.70
12874;DHT22;6505;51.114;13.128;2022-10-16T02:04:58;21.30;70.60
12874;DHT22;6505;51.114;13.128;2022-10-16T02:07:29;21.30;70.60
12874;DHT22;6505;51.114;13.128;2022-10-16T02:09:57;21.30;70.40
12874;DHT22;6505;51.114;13.128;2022-10-16T02:12:27;21.30;70.50
12874;DHT22;6505;51.114;13.128;2022-10-16T02:15:00;21.30;70.70
12874;DHT22;6505;51.114;13.128;2022-10-16T02:17:28;21.30;70.60
12874;DHT22;6505;51.114;13.128;2022-10-16T02:19:58;21.30;70.60
12874;DHT22;6505;51.114;13.128;2022-10-16T02:22:32;21.30;70.70
12874;DHT22;6505;51.114;13.128;2022-10-16T02:25:07;21.30;70.80
12874;DHT22;6505;51.114;13.128;2022-10-16T02:27:41;21.40;70.90
12874;DHT22;6505;51.114;13.128;2022-10-16T02:30:20;21.30;70.80
12874;DHT22;6505;51.114;13.128;2022-10-16T02:32:53;21.40;71.00
12874;DHT22;6505;51.114;13.128;2022-10-16T02:35:23;21.30;70.90
12874;DHT22;6505;51.114;13.128;2022-10-16T02:37:53;21.40;71.00
12874;DHT22;6505;51.114;13.128;2022-10-16T02:40:24;21.40;71.00
12874;DHT22;6505;51.114;13.128;2022-10-16T02:42:54;21.40;71.00
12874;DHT22;6505;51.114;13.128;2022-10-16T02:45:24;21.40;71.10
12874;DHT22;6505;51.114;13.128;2022-10-16T02:47:53;21.40;71.10
12874;DHT22;6505;51.114;13.128;2022-10-16T02:50:21;21.40;71.10
12874;DHT22;6505;51.114;13.128;2022-10-16T02:52:51;21.40;71.10
12874;DHT22;6505;51.114;13.128;2022-10-16T02:55:19;21.40;71.10
12874;DHT22;6505;51.114;13.128;2022-10-16T02:57:47;21.40;71.10
12874;DHT22;6505;51.114;13.128;2022-10-16T03:00:16;21.40;71.00
12874;DHT22;6505;51.114;13.128;2022-10-16T03:02:46;21.40;71.20
12874;DHT22;6505;51.114;13.128;2022-10-16T03:05:15;21.40;71.00
12874;DHT22;6505;51.114;13.128;2022-10-16T03:07:43;21.40;71.00
12874;DHT22;6505;51.114;13.128;2022-10-16T03:10:11;21.40;70.90
12874;DHT22;6505;51.114;13.128;2022-10-16T03:12:40;21.40;70.90
12874;DHT22;6505;51.114;13.128;2022-10-16T03:15:08;21.40;70.90
12874;DHT22;6505;51.114;13.128;2022-10-16T03:17:37;21.40;70.90
12874;DHT22;6505;51.114;13.128;2022-10-16T03:20:07;21.40;70.80
12874;DHT22;6505;51.114;13.128;2022-10-16T03:22:36;21.40;70.70
12874;DHT22;6505;51.114;13.128;2022-10-16T03:25:05;21.40;70.60
12874;DHT22;6505;51.114;13.128;2022-10-16T03:27:34;21.40;70.60
12874;DHT22;6505;51.114;13.128;2022-10-16T03:30:03;21.40;71.10
12874;DHT22;6505;51.114;13.128;2022-10-16T03:32:31;21.40;70.30
12874;DHT22;6505;51.114;13.128;2022-10-16T03:35:07;21.40;70.20
12874;DHT22;6505;51.114;13.128;2022-10-16T03:37:35;21.40;70.30
12874;DHT22;6505;51.114;13.128;2022-10-16T03:40:04;21.30;70.00
12874;DHT22;6505;51.114;13.128;2022-10-16T03:42:33;21.40;70.10
12874;DHT22;6505;51.114;13.128;2022-10-16T03:45:01;21.40;70.00
12874;DHT22;6505;51.114;13.128;2022-10-16T03:47:30;21.40;70.10
12874;DHT22;6505;51.114;13.128;2022-10-16T03:49:59;21.40;69.90
12874;DHT22;6505;51.114;13.128;2022-10-16T03:52:29;21.40;70.00
12874;DHT22;6505;51.114;13.128;2022-10-16T03:54:59;21.30;69.80
12874;DHT22;6505;51.114;13.128;2022-10-16T03:57:27;21.30;69.80
12874;DHT22;6505;51.114;13.128;2022-10-16T03:59:56;21.30;69.70
12874;DHT22;6505;51.114;13.128;2022-10-16T04:02:24;21.30;69.80
12874;DHT22;6505;51.114;13.128;2022-10-16T04:04:52;21.30;69.70
12874;DHT22;6505;51.114;13.128;2022-10-16T04:07:21;21.30;69.60
12874;DHT22;6505;51.114;13.128;2022-10-16T04:09:51;21.30;69.70
12874;DHT22;6505;51.114;13.128;2022-10-16T04:12:20;21.30;69.80
12874;DHT22;6505;51.114;13.128;2022-10-16T04:14:49;21.30;69.70
12874;DHT22;6505;51.114;13.128;2022-10-16T04:17:17;21.30;69.60
12874;DHT22;6505;51.114;13.128;2022-10-16T04:19:45;21.30;69.60
12874;DHT22;6505;51.114;13.128;2022-10-16T04:22:13;21.30;69.60
12874;DHT22;6505;51.114;13.128;2022-10-16T04:24:41;21.30;69.70
12874;DHT22;6505;51.114;13.128;2022-10-16T04:27:11;21.30;69.70
12874;DHT22;6505;51.114;13.128;2022-10-16T04:29:39;21.30;69.70
12874;DHT22;6505;51.114;13.128;2022-10-16T04:32:08;21.30;69.70
12874;DHT22;6505;51.114;13.128;2022-10-16T04:34:38;21.30;69.80
12874;DHT22;6505;51.114;13.128;2022-10-16T04:37:06;21.30;70.00
12874;DHT22;6505;51.114;13.128;2022-10-16T04:39:35;21.30;69.80
12874;DHT22;6505;51.114;13.128;2022-10-16T04:42:03;21.30;70.00
12874;DHT22;6505;51.114;13.128;2022-10-16T04:44:32;21.30;69.90
12874;DHT22;6505;51.114;13.128;2022-10-16T04:47:01;21.20;69.80
12874;DHT22;6505;51.114;13.128;2022-10-16T04:49:30;21.30;70.10
12874;DHT22;6505;51.114;13.128;2022-10-16T04:51:58;21.30;70.10
12874;DHT22;6505;51.114;13.128;2022-10-16T04:54:27;21.30;70.10
12874;DHT22;6505;51.114;13.128;2022-10-16T04:56:56;21.30;70.00
12874;DHT22;6505;51.114;13.128;2022-10-16T04:59:24;21.30;70.10
12874;DHT22;6505;51.114;13.128;2022-10-16T05:01:54;21.30;70.00
12874;DHT22;6505;51.114;13.128;2022-10-16T05:04:23;21.30;70.00
12874;DHT22;6505;51.114;13.128;2022-10-16T05:06:52;21.30;70.10
12874;DHT22;6505;51.114;13.128;2022-10-16T05:09:21;21.30;70.10
12874;DHT22;6505;51.114;13.128;2022-10-16T05:11:49;21.30;70.10
12874;DHT22;6505;51.114;13.128;2022-10-16T05:14:17;21.20;69.70
12874;DHT22;6505;51.114;13.128;2022-10-16T05:16:46;21.30;70.00
12874;DHT22;6505;51.114;13.128;2022-10-16T05:19:16;21.30;70.00
12874;DHT22;6505;51.114;13.128;2022-10-16T05:21:54;21.30;70.00
12874;DHT22;6505;51.114;13.128;2022-10-16T05:24:22;21.20;70.60
12874;DHT22;6505;51.114;13.128;2022-10-16T05:26:51;21.30;69.90
12874;DHT22;6505;51.114;13.128;2022-10-16T05:29:20;21.30;69.80
12874;DHT22;6505;51.114;13.128;2022-10-16T05:31:51;21.30;69.80
12874;DHT22;6505;51.114;13.128;2022-10-16T05:34:21;21.30;69.80
12874;DHT22;6505;51.114;13.128;2022-10-16T05:36:49;21.30;70.50
12874;DHT22;6505;51.114;13.128;2022-10-16T05:39:17;21.20;69.60
12874;DHT22;6505;51.114;13.128;2022-10-16T05:41:46;21.20;69.50
12874;DHT22;6505;51.114;13.128;2022-10-16T05:44:14;21.30;69.50
12874;DHT22;6505;51.114;13.128;2022-10-16T05:46:42;21.20;69.40
12874;DHT22;6505;51.114;13.128;2022-10-16T05:49:10;21.20;69.30
12874;DHT22;6505;51.114;13.128;2022-10-16T05:51:40;21.20;69.20
12874;DHT22;6505;51.114;13.128;2022-10-16T05:54:08;21.20;69.30
12874;DHT22;6505;51.114;13.128;2022-10-16T05:56:37;21.20;69.20
12874;DHT22;6505;51.114;13.128;2022-10-16T05:59:05;21.20;69.00
12874;DHT22;6505;51.114;13.128;2022-10-16T06:01:33;21.20;69.10
12874;DHT22;6505;51.114;13.128;2022-10-16T06:04:02;21.20;69.20
12874;DHT22;6505;51.114;13.128;2022-10-16T06:06:31;21.20;69.10
12874;DHT22;6505;51.114;13.128;2022-10-16T06:09:00;21.20;69.20
12874;DHT22;6505;51.114;13.128;2022-10-16T06:11:30;21.20;69.40
12874;DHT22;6505;51.114;13.128;2022-10-16T06:14:01;21.20;69.50
12874;DHT22;6505;51.114;13.128;2022-10-16T06:16:34;21.20;69.60
12874;DHT22;6505;51.114;13.128;2022-10-16T06:19:04;21.20;69.70
12874;DHT22;6505;51.114;13.128;2022-10-16T06:21:34;21.20;69.70
12874;DHT22;6505;51.114;13.128;2022-10-16T06:24:04;21.20;69.60
12874;DHT22;6505;51.114;13.128;2022-10-16T06:26:32;21.20;69.60
12874;DHT22;6505;51.114;13.128;2022-10-16T06:29:01;21.20;69.70
12874;DHT22;6505;51.114;13.128;2022-10-16T06:31:29;21.20;69.70
12874;DHT22;6505;51.114;13.128;2022-10-16T06:34:00;21.20;69.80
12874;DHT22;6505;51.114;13.128;2022-10-16T06:36:29;21.30;70.10
12874;DHT22;6505;51.114;13.128;2022-10-16T06:38:58;21.20;69.90
12874;DHT22;6505;51.114;13.128;2022-10-16T06:41:27;21.30;70.00
12874;DHT22;6505;51.114;13.128;2022-10-16T06:43:57;21.20;70.10
12874;DHT22;6505;51.114;13.128;2022-10-16T06:46:26;21.30;70.10
12874;DHT22;6505;51.114;13.128;2022-10-16T06:48:55;21.30;70.40
12874;DHT22;6505;51.114;13.128;2022-10-16T06:51:24;21.30;71.10
12874;DHT22;6505;51.114;13.128;2022-10-16T06:53:55;21.30;70.60
12874;DHT22;6505;51.114;13.128;2022-10-16T06:56:32;21.30;70.80
12874;DHT22;6505;51.114;13.128;2022-10-16T06:59:00;21.30;70.90
12874;DHT22;6505;51.114;13.128;2022-10-16T07:01:29;21.30;71.00
12874;DHT22;6505;51.114;13.128;2022-10-16T07:03:57;21.30;71.20
12874;DHT22;6505;51.114;13.128;2022-10-16T07:06:26;21.30;71.30
12874;DHT22;6505;51.114;13.128;2022-10-16T07:08:55;21.40;71.60
12874;DHT22;6505;51.114;13.128;2022-10-16T07:11:23;21.40;71.60
12874;DHT22;6505;51.114;13.128;2022-10-16T07:13:53;21.40;71.60
12874;DHT22;6505;51.114;13.128;2022-10-16T07:16:24;21.40;71.60
12874;DHT22;6505;51.114;13.128;2022-10-16T07:18:53;21.50;71.80
12874;DHT22;6505;51.114;13.128;2022-10-16T07:21:27;21.50;71.90
12874;DHT22;6505;51.114;13.128;2022-10-16T07:23:57;21.50;72.00
12874;DHT22;6505;51.114;13.128;2022-10-16T07:26:30;21.50;72.00
12874;DHT22;6505;51.114;13.128;2022-10-16T07:29:01;21.60;72.20
12874;DHT22;6505;51.114;13.128;2022-10-16T07:31:30;21.60;72.30
12874;DHT22;6505;51.114;13.128;2022-10-16T07:33:59;21.60;72.40
12874;DHT22;6505;51.114;13.128;2022-10-16T07:36:28;21.60;72.40
12874;DHT22;6505;51.114;13.128;2022-10-16T07:38:56;21.60;72.20
12874;DHT22;6505;51.114;13.128;2022-10-16T07:41:26;21.60;72.20
12874;DHT22;6505;51.114;13.128;2022-10-16T07:43:55;21.60;72.40
12874;DHT22;6505;51.114;13.128;2022-10-16T07:46:28;21.70;72.40
12874;DHT22;6505;51.114;13.128;2022-10-16T07:48:57;21.60;72.20
12874;DHT22;6505;51.114;13.128;2022-10-16T07:51:26;21.70;72.40
12874;DHT22;6505;51.114;13.128;2022-10-16T07:53:54;21.70;72.70
12874;DHT22;6505;51.114;13.128;2022-10-16T07:56:23;21.70;72.60
12874;DHT22;6505;51.114;13.128;2022-10-16T07:58:51;21.80;72.80
12874;DHT22;6505;51.114;13.128;2022-10-16T08:01:20;21.80;72.70
12874;DHT22;6505;51.114;13.128;2022-10-16T08:03:51;21.80;72.70
12874;DHT22;6505;51.114;13.128;2022-10-16T08:06:21;21.80;72.90
12874;DHT22;6505;51.114;13.128;2022-10-16T08:08:54;21.80;72.90
12874;DHT22;6505;51.114;13.128;2022-10-16T08:11:23;21.90;73.10
12874;DHT22;6505;51.114;13.128;2022-10-16T08:13:51;21.90;73.10
12874;DHT22;6505;51.114;13.128;2022-10-16T08:16:19;22.00;73.30
12874;DHT22;6505;51.114;13.128;2022-10-16T08:18:49;22.10;73.50
12874;DHT22;6505;51.114;13.128;2022-10-16T08:21:20;22.10;73.80
12874;DHT22;6505;51.114;13.128;2022-10-16T08:23:50;22.10;73.60
12874;DHT22;6505;51.114;13.128;2022-10-16T08:26:24;22.10;73.50
12874;DHT22;6505;51.114;13.128;2022-10-16T08:28:54;22.20;73.30
12874;DHT22;6505;51.114;13.128;2022-10-16T08:31:23;22.30;73.50
12874;DHT22;6505;51.114;13.128;2022-10-16T08:33:54;22.30;73.10
12874;DHT22;6505;51.114;13.128;2022-10-16T08:36:22;22.30;73.20
12874;DHT22;6505;51.114;13.128;2022-10-16T08:38:51;22.30;73.00
12874;DHT22;6505;51.114;13.128;2022-10-16T08:41:37;22.40;72.90
12874;DHT22;6505;51.114;13.128;2022-10-16T08:44:43;22.40;72.80
12874;DHT22;6505;51.114;13.128;2022-10-16T08:47:42;22.40;72.80
12874;DHT22;6505;51.114;13.128;2022-10-16T08:50:22;22.40;72.70
12874;DHT22;6505;51.114;13.128;2022-10-16T08:52:55;22.40;72.80
12874;DHT22;6505;51.114;13.128;2022-10-16T08:55:34;22.40;72.90
12874;DHT22;6505;51.114;13.128;2022-10-16T08:58:12;22.40;73.40
12874;DHT22;6505;51.114;13.128;2022-10-16T09:00:43;22.40;73.40
12874;DHT22;6505;51.114;13.128;2022-10-16T09:03:24;22.50;73.50
12874;DHT22;6505;51.114;13.128;2022-10-16T09:06:19;22.40;73.40
12874;DHT22;6505;51.114;13.128;2022-10-16T09:09:10;22.50;73.40
12874;DHT22;6505;51.114;13.128;2022-10-16T09:12:14;22.50;73.10
12874;DHT22;6505;51.114;13.128;2022-10-16T09:14:56;22.60;73.10
12874;DHT22;6505;51.114;13.128;2022-10-16T09:17:37;22.60;73.10
12874;DHT22;6505;51.114;13.128;2022-10-16T09:20:35;22.70;73.10
12874;DHT22;6505;51.114;13.128;2022-10-16T09:23:14;22.70;73.50
12874;DHT22;6505;51.114;13.128;2022-10-16T09:25:46;22.70;73.30
12874;DHT22;6505;51.114;13.128;2022-10-16T09:28:17;22.80;73.20
12874;DHT22;6505;51.114;13.128;2022-10-16T09:30:47;22.70;73.00
12874;DHT22;6505;51.114;13.128;2022-10-16T09:33:18;22.80;73.40
12874;DHT22;6505;51.114;13.128;2022-10-16T09:35:50;22.80;73.20
12874;DHT22;6505;51.114;13.128;2022-10-16T09:38:27;22.80;73.20
12874;DHT22;6505;51.114;13.128;2022-10-16T09:40:57;22.80;73.20
12874;DHT22;6505;51.114;13.128;2022-10-16T09:43:34;22.80;73.20
12874;DHT22;6505;51.114;13.128;2022-10-16T09:46:08;22.80;73.20
12874;DHT22;6505;51.114;13.128;2022-10-16T09:48:49;22.90;72.90
12874;DHT22;6505;51.114;13.128;2022-10-16T09:51:23;22.90;72.60
12874;DHT22;6505;51.114;13.128;2022-10-16T09:53:57;22.90;72.60
12874;DHT22;6505;51.114;13.128;2022-10-16T09:56:28;22.90;72.50
12874;DHT22;6505;51.114;13.128;2022-10-16T09:59:01;23.00;72.70
12874;DHT22;6505;51.114;13.128;2022-10-16T10:01:38;22.90;72.60
12874;DHT22;6505;51.114;13.128;2022-10-16T10:04:08;23.00;72.60
12874;DHT22;6505;51.114;13.128;2022-10-16T10:06:41;23.00;72.60
12874;DHT22;6505;51.114;13.128;2022-10-16T10:09:19;23.10;72.90
12874;DHT22;6505;51.114;13.128;2022-10-16T10:11:52;23.10;73.00
12874;DHT22;6505;51.114;13.128;2022-10-16T10:14:25;23.10;72.70
12874;DHT22;6505;51.114;13.128;2022-10-16T10:17:12;23.10;72.30
12874;DHT22;6505;51.114;13.128;2022-10-16T10:19:46;23.10;72.30
12874;DHT22;6505;51.114;13.128;2022-10-16T10:22:23;23.10;72.30
12874;DHT22;6505;51.114;13.128;2022-10-16T10:25:22;23.20;72.00
12874;DHT22;6505;51.114;13.128;2022-10-16T10:28:17;23.20;72.10
12874;DHT22;6505;51.114;13.128;2022-10-16T10:30:58;23.30;71.90
12874;DHT22;6505;51.114;13.128;2022-10-16T10:33:38;23.30;71.90
12874;DHT22;6505;51.114;13.128;2022-10-16T10:36:20;23.30;71.50
12874;DHT22;6505;51.114;13.128;2022-10-16T10:38:58;23.30;71.50
12874;DHT22;6505;51.114;13.128;2022-10-16T10:44:53;23.30;71.20
12874;DHT22;6505;51.114;13.128;2022-10-16T10:47:38;23.40;71.20
12874;DHT22;6505;51.114;13.128;2022-10-16T10:50:22;23.40;71.00
12874;DHT22;6505;51.114;13.128;2022-10-16T10:52:59;23.40;70.40
12874;DHT22;6505;51.114;13.128;2022-10-16T10:55:40;23.40;70.10
12874;DHT22;6505;51.114;13.128;2022-10-16T10:58:31;23.40;70.00
12874;DHT22;6505;51.114;13.128;2022-10-16T11:01:31;23.40;70.10
12874;DHT22;6505;51.114;13.128;2022-10-16T11:04:30;23.40;69.70
12874;DHT22;6505;51.114;13.128;2022-10-16T11:07:13;23.40;69.70
12874;DHT22;6505;51.114;13.128;2022-10-16T11:09:48;23.40;69.60
12874;DHT22;6505;51.114;13.128;2022-10-16T11:12:21;23.40;69.50
12874;DHT22;6505;51.114;13.128;2022-10-16T11:15:00;23.50;69.90
12874;DHT22;6505;51.114;13.128;2022-10-16T11:17:35;23.50;69.40
12874;DHT22;6505;51.114;13.128;2022-10-16T11:20:14;23.40;69.50
12874;DHT22;6505;51.114;13.128;2022-10-16T11:22:50;23.50;69.70
12874;DHT22;6505;51.114;13.128;2022-10-16T11:25:23;23.50;69.60
12874;DHT22;6505;51.114;13.128;2022-10-16T11:27:58;23.50;69.60
12874;DHT22;6505;51.114;13.128;2022-10-16T11:30:39;23.50;69.60
12874;DHT22;6505;51.114;13.128;2022-10-16T11:33:24;23.60;69.70
12874;DHT22;6505;51.114;13.128;2022-10-16T11:36:06;23.60;69.80
12874;DHT22;6505;51.114;13.128;2022-10-16T11:38:45;23.50;69.60
12874;DHT22;6505;51.114;13.128;2022-10-16T11:41:26;23.60;69.70
12874;DHT22;6505;51.114;13.128;2022-10-16T11:44:06;23.60;69.70
12874;DHT22;6505;51.114;13.128;2022-10-16T11:46:50;23.60;70.30
12874;DHT22;6505;51.114;13.128;2022-10-16T11:49:44;23.60;70.10
12874;DHT22;6505;51.114;13.128;2022-10-16T11:52:19;23.60;70.00
12874;DHT22;6505;51.114;13.128;2022-10-16T11:54:56;23.70;69.80
12874;DHT22;6505;51.114;13.128;2022-10-16T11:57:32;23.70;70.10
12874;DHT22;6505;51.114;13.128;2022-10-16T12:00:09;23.70;69.80
12874;DHT22;6505;51.114;13.128;2022-10-16T12:02:57;23.70;69.70
12874;DHT22;6505;51.114;13.128;2022-10-16T12:05:39;23.70;69.70
12874;DHT22;6505;51.114;13.128;2022-10-16T12:08:20;23.80;69.80
12874;DHT22;6505;51.114;13.128;2022-10-16T12:10:51;23.80;69.60
12874;DHT22;6505;51.114;13.128;2022-10-16T12:13:30;23.80;69.70
12874;DHT22;6505;51.114;13.128;2022-10-16T12:16:07;23.80;69.80
12874;DHT22;6505;51.114;13.128;2022-10-16T12:19:09;23.80;69.50
12874;DHT22;6505;51.114;13.128;2022-10-16T12:21:39;23.80;69.30
12874;DHT22;6505;51.114;13.128;2022-10-16T12:24:21;23.80;70.30
12874;DHT22;6505;51.114;13.128;2022-10-16T12:26:57;23.80;69.60
12874;DHT22;6505;51.114;13.128;2022-10-16T12:29:32;23.80;69.30
12874;DHT22;6505;51.114;13.128;2022-10-16T12:32:05;23.90;69.20
12874;DHT22;6505;51.114;13.128;2022-10-16T12:35:18;23.90;69.50
12874;DHT22;6505;51.114;13.128;2022-10-16T12:37:49;23.90;69.00
12874;DHT22;6505;51.114;13.128;2022-10-16T12:40:27;23.90;68.90
12874;DHT22;6505;51.114;13.128;2022-10-16T12:42:57;23.90;69.00
12874;DHT22;6505;51.114;13.128;2022-10-16T12:45:29;23.90;68.70
12874;DHT22;6505;51.114;13.128;2022-10-16T12:47:59;23.90;68.70
12874;DHT22;6505;51.114;13.128;2022-10-16T12:50:34;24.00;68.80
12874;DHT22;6505;51.114;13.128;2022-10-16T12:53:17;24.00;68.80
12874;DHT22;6505;51.114;13.128;2022-10-16T12:55:55;24.00;68.80
12874;DHT22;6505;51.114;13.128;2022-10-16T12:58:43;24.00;68.90
12874;DHT22;6505;51.114;13.128;2022-10-16T13:01:34;24.00;68.90
12874;DHT22;6505;51.114;13.128;2022-10-16T13:07:34;24.10;69.00
12874;DHT22;6505;51.114;13.128;2022-10-16T13:10:20;24.10;69.00
12874;DHT22;6505;51.114;13.128;2022-10-16T13:13:31;24.10;69.00
12874;DHT22;6505;51.114;13.128;2022-10-16T13:16:19;24.10;68.90
12874;DHT22;6505;51.114;13.128;2022-10-16T13:19:02;24.10;69.00
12874;DHT22;6505;51.114;13.128;2022-10-16T13:21:45;24.10;69.00
12874;DHT22;6505;51.114;13.128;2022-10-16T13:24:41;24.10;68.90
12874;DHT22;6505;51.114;13.128;2022-10-16T13:27:27;24.10;69.20
12874;DHT22;6505;51.114;13.128;2022-10-16T13:30:12;24.10;69.20
12874;DHT22;6505;51.114;13.128;2022-10-16T13:32:46;24.20;69.00
12874;DHT22;6505;51.114;13.128;2022-10-16T13:35:22;24.20;69.00
12874;DHT22;6505;51.114;13.128;2022-10-16T13:38:03;24.20;69.00
12874;DHT22;6505;51.114;13.128;2022-10-16T13:40:34;24.20;69.10
12874;DHT22;6505;51.114;13.128;2022-10-16T13:43:02;24.20;68.30
12874;DHT22;6505;51.114;13.128;2022-10-16T13:45:30;24.20;68.10
12874;DHT22;6505;51.114;13.128;2022-10-16T13:48:03;24.20;67.90
12874;DHT22;6505;51.114;13.128;2022-10-16T13:50:32;24.20;68.00
12874;DHT22;6505;51.114;13.128;2022-10-16T13:53:06;24.20;68.00
12874;DHT22;6505;51.114;13.128;2022-10-16T13:55:41;24.20;68.40
12874;DHT22;6505;51.114;13.128;2022-10-16T13:58:13;24.20;68.00
12874;DHT22;6505;51.114;13.128;2022-10-16T14:00:53;24.20;68.10
12874;DHT22;6505;51.114;13.128;2022-10-16T14:03:27;24.20;68.10
12874;DHT22;6505;51.114;13.128;2022-10-16T14:06:00;24.20;68.10
12874;DHT22;6505;51.114;13.128;2022-10-16T14:08:30;24.20;68.10
12874;DHT22;6505;51.114;13.128;2022-10-16T14:11:01;24.20;67.90
12874;DHT22;6505;51.114;13.128;2022-10-16T14:13:32;24.20;68.20
12874;DHT22;6505;51.114;13.128;2022-10-16T14:16:07;24.20;68.00
12874;DHT22;6505;51.114;13.128;2022-10-16T14:18:38;24.20;68.10
12874;DHT22;6505;51.114;13.128;2022-10-16T14:21:12;24.20;68.10
12874;DHT22;6505;51.114;13.128;2022-10-16T14:23:43;24.20;68.10
12874;DHT22;6505;51.114;13.128;2022-10-16T14:26:17;24.20;68.00
12874;DHT22;6505;51.114;13.128;2022-10-16T14:28:49;24.20;68.10
12874;DHT22;6505;51.114;13.128;2022-10-16T14:31:33;24.20;68.20
12874;DHT22;6505;51.114;13.128;2022-10-16T14:34:03;24.20;68.30
12874;DHT22;6505;51.114;13.128;2022-10-16T14:36:33;24.20;68.10
12874;DHT22;6505;51.114;13.128;2022-10-16T14:39:04;24.20;68.10
12874;DHT22;6505;51.114;13.128;2022-10-16T14:41:42;24.20;68.10
12874;DHT22;6505;51.114;13.128;2022-10-16T14:44:13;24.20;68.40
12874;DHT22;6505;51.114;13.128;2022-10-16T14:46:45;24.20;68.10
12874;DHT22;6505;51.114;13.128;2022-10-16T14:49:17;24.20;68.00
12874;DHT22;6505;51.114;13.128;2022-10-16T14:51:47;24.20;67.90
12874;DHT22;6505;51.114;13.128;2022-10-16T14:54:17;24.20;67.80
12874;DHT22;6505;51.114;13.128;2022-10-16T14:56:50;24.20;67.60
12874;DHT22;6505;51.114;13.128;2022-10-16T14:59:25;24.20;67.50
12874;DHT22;6505;51.114;13.128;2022-10-16T15:01:56;24.20;67.70
12874;DHT22;6505;51.114;13.128;2022-10-16T15:04:24;24.20;67.50
12874;DHT22;6505;51.114;13.128;2022-10-16T15:06:52;24.20;67.30
12874;DHT22;6505;51.114;13.128;2022-10-16T15:09:21;24.20;67.40
12874;DHT22;6505;51.114;13.128;2022-10-16T15:11:50;24.20;67.40
12874;DHT22;6505;51.114;13.128;2022-10-16T15:14:19;24.20;67.50
12874;DHT22;6505;51.114;13.128;2022-10-16T15:16:47;24.20;67.40
12874;DHT22;6505;51.114;13.128;2022-10-16T15:19:15;24.20;67.40
12874;DHT22;6505;51.114;13.128;2022-10-16T15:21:43;24.20;67.40
12874;DHT22;6505;51.114;13.128;2022-10-16T15:24:12;24.20;67.30
12874;DHT22;6505;51.114;13.128;2022-10-16T15:26:47;24.20;67.40
12874;DHT22;6505;51.114;13.128;2022-10-16T15:29:17;24.20;67.50
12874;DHT22;6505;51.114;13.128;2022-10-16T15:31:45;24.20;67.50
12874;DHT22;6505;51.114;13.128;2022-10-16T15:34:14;24.20;67.60
12874;DHT22;6505;51.114;13.128;2022-10-16T15:36:42;24.10;67.60
12874;DHT22;6505;51.114;13.128;2022-10-16T15:39:13;24.20;67.80
12874;DHT22;6505;51.114;13.128;2022-10-16T15:41:44;24.20;67.90
12874;DHT22;6505;51.114;13.128;2022-10-16T15:44:18;24.20;68.10
12874;DHT22;6505;51.114;13.128;2022-10-16T15:46:47;24.20;67.90
12874;DHT22;6505;51.114;13.128;2022-10-16T15:49:16;24.10;67.70
12874;DHT22;6505;51.114;13.128;2022-10-16T15:51:44;24.20;67.90
12874;DHT22;6505;51.114;13.128;2022-10-16T15:54:15;24.10;67.80
12874;DHT22;6505;51.114;13.128;2022-10-16T15:56:44;24.10;67.80
12874;DHT22;6505;51.114;13.128;2022-10-16T15:59:12;24.10;67.60
12874;DHT22;6505;51.114;13.128;2022-10-16T16:01:42;24.10;67.70
12874;DHT22;6505;51.114;13.128;2022-10-16T16:04:10;24.10;67.70
12874;DHT22;6505;51.114;13.128;2022-10-16T16:06:58;24.10;67.60
12874;DHT22;6505;51.114;13.128;2022-10-16T16:09:28;24.10;67.50
12874;DHT22;6505;51.114;13.128;2022-10-16T16:11:57;24.10;67.50
12874;DHT22;6505;51.114;13.128;2022-10-16T16:14:27;24.10;67.30
12874;DHT22;6505;51.114;13.128;2022-10-16T16:16:59;24.00;67.20
12874;DHT22;6505;51.114;13.128;2022-10-16T16:19:27;24.00;67.30